createdAt,value
2018-11-06T00:00:51.355Z,100.97
2018-11-06T00:01:54.963Z,100.40
2018-11-06T00:03:04.078Z,95.10
2018-11-06T00:04:07.662Z,101.47
2018-11-06T00:05:13.214Z,106.37
2018-11-06T00:06:16.824Z,110.20
2018-11-06T00:07:20.443Z,113.70
2018-11-06T00:08:24.044Z,121.40
2018-11-06T00:09:27.725Z,122.60
2018-11-06T00:10:31.208Z,111.33
2018-11-06T00:11:34.788Z,106.80
2018-11-06T00:12:38.379Z,118.53
2018-11-06T00:13:41.958Z,119.60
2018-11-06T00:14:45.535Z,118.30
2018-11-06T00:15:49.147Z,113.00
2018-11-06T00:16:52.743Z,116.60
2018-11-06T00:17:56.319Z,113.30
2018-11-06T00:18:59.888Z,112.17
2018-11-06T00:20:03.855Z,110.27
2018-11-06T00:21:07.435Z,115.97
2018-11-06T00:22:11.010Z,111.57
2018-11-06T00:23:14.582Z,114.90
2018-11-06T00:24:18.162Z,123.10
2018-11-06T00:25:21.774Z,109.60
2018-11-06T00:26:25.371Z,111.37
2018-11-06T00:27:28.966Z,114.13
2018-11-06T00:28:32.567Z,112.97
2018-11-06T00:29:36.136Z,118.23
2018-11-06T00:30:39.723Z,110.50
2018-11-06T00:31:43.315Z,117.80
2018-11-06T00:32:46.878Z,116.50
2018-11-06T00:33:50.448Z,113.93
2018-11-06T00:34:54.022Z,122.47
2018-11-06T00:35:57.666Z,116.87
2018-11-06T00:37:02.118Z,121.00
2018-11-06T00:38:05.703Z,115.13
2018-11-06T00:39:09.827Z,125.43
2018-11-06T00:40:13.622Z,118.93
2018-11-06T00:41:17.210Z,116.73
2018-11-06T00:42:20.790Z,112.57
2018-11-06T00:43:24.378Z,120.73
2018-11-06T00:44:28.040Z,123.80
2018-11-06T00:45:31.592Z,114.83
2018-11-06T00:46:35.183Z,116.90
2018-11-06T00:47:39.006Z,117.77
2018-11-06T00:48:42.754Z,115.47
2018-11-06T00:49:46.362Z,110.80
2018-11-06T00:50:49.941Z,111.67
2018-11-06T00:51:53.543Z,115.33
2018-11-06T00:52:57.115Z,129.43
2018-11-06T00:54:00.723Z,103.20
2018-11-06T00:55:05.588Z,107.57
2018-11-06T00:56:09.199Z,103.73
2018-11-06T00:57:12.927Z,105.67
2018-11-06T00:58:16.495Z,103.53
2018-11-06T00:59:20.059Z,93.97
2018-11-06T01:00:23.667Z,84.67
2018-11-06T01:01:27.241Z,90.73
2018-11-06T01:02:30.802Z,95.63
2018-11-06T01:03:39.832Z,102.67
2018-11-06T01:04:43.383Z,99.60
2018-11-06T01:05:46.988Z,87.50
2018-11-06T01:06:50.554Z,94.17
2018-11-06T01:07:54.131Z,110.37
2018-11-06T01:08:57.699Z,111.20
2018-11-06T01:10:01.276Z,87.43
2018-11-06T01:11:04.859Z,102.03
2018-11-06T01:12:08.453Z,105.07
2018-11-06T01:13:12.007Z,100.63
2018-11-06T01:14:15.578Z,98.20
2018-11-06T01:15:19.152Z,112.77
2018-11-06T01:16:22.975Z,107.57
2018-11-06T01:17:26.563Z,100.70
2018-11-06T01:18:30.201Z,91.17
2018-11-06T01:19:33.792Z,101.00
2018-11-06T01:20:37.386Z,103.33
2018-11-06T01:21:40.950Z,101.30
2018-11-06T01:22:44.806Z,96.20
2018-11-06T01:23:48.373Z,85.37
2018-11-06T01:24:51.938Z,79.07
2018-11-06T01:25:55.511Z,76.20
2018-11-06T01:26:59.128Z,78.90
2018-11-06T01:28:02.688Z,85.47
2018-11-06T01:29:06.418Z,86.47
2018-11-06T01:30:13.074Z,77.67
2018-11-06T01:31:16.768Z,97.30
2018-11-06T01:32:20.358Z,81.90
2018-11-06T01:33:23.903Z,80.00
2018-11-06T01:34:27.475Z,78.57
2018-11-06T01:35:31.046Z,83.10
2018-11-06T01:36:34.630Z,79.90
2018-11-06T01:37:38.198Z,77.67
2018-11-06T01:38:41.780Z,78.27
2018-11-06T01:39:45.354Z,90.20
2018-11-06T01:40:49.403Z,80.73
2018-11-06T01:41:53.016Z,72.50
2018-11-06T01:42:56.595Z,78.73
2018-11-06T01:44:00.163Z,73.73
2018-11-06T01:45:04.347Z,79.50
2018-11-06T01:46:08.106Z,71.90
2018-11-06T01:47:11.704Z,75.60
2018-11-06T01:48:15.266Z,82.83
2018-11-06T01:49:18.838Z,83.20
2018-11-06T01:50:22.406Z,73.23
2018-11-06T01:51:25.986Z,84.87
2018-11-06T01:52:29.585Z,81.57
2018-11-06T01:53:33.203Z,85.87
2018-11-06T01:54:36.767Z,83.80
2018-11-06T01:55:40.343Z,83.33
2018-11-06T01:56:43.960Z,72.57
2018-11-06T01:57:47.515Z,75.10
2018-11-06T01:58:51.127Z,76.83
2018-11-06T01:59:54.694Z,96.47
2018-11-06T02:00:58.295Z,78.93
2018-11-06T02:02:01.863Z,71.93
2018-11-06T02:03:05.442Z,75.63
2018-11-06T02:04:09.019Z,82.17
2018-11-06T02:05:13.709Z,86.97
2018-11-06T02:06:17.263Z,74.80
2018-11-06T02:07:20.889Z,75.17
2018-11-06T02:08:24.447Z,68.83
2018-11-06T02:09:28.018Z,75.77
2018-11-06T02:10:31.582Z,71.10
2018-11-06T02:11:35.195Z,75.57
2018-11-06T02:12:38.754Z,73.07
2018-11-06T02:13:42.431Z,71.37
2018-11-06T02:14:45.966Z,70.80
2018-11-06T02:15:49.530Z,71.07
2018-11-06T02:16:53.135Z,78.90
2018-11-06T02:17:56.703Z,73.37
2018-11-06T02:19:00.298Z,76.20
2018-11-06T02:20:03.973Z,67.40
2018-11-06T02:21:07.673Z,65.57
2018-11-06T02:22:11.227Z,65.27
2018-11-06T02:23:14.800Z,69.83
2018-11-06T02:24:18.378Z,68.87
2018-11-06T02:25:21.938Z,77.83
2018-11-06T02:26:25.526Z,71.47
2018-11-06T02:27:29.104Z,63.50
2018-11-06T02:28:32.669Z,63.70
2018-11-06T02:29:36.238Z,61.13
2018-11-06T02:30:39.842Z,77.43
2018-11-06T02:31:43.434Z,62.40
2018-11-06T02:32:47.387Z,67.10
2018-11-06T02:33:50.943Z,62.90
2018-11-06T02:34:54.518Z,60.60
2018-11-06T02:35:58.135Z,62.23
2018-11-06T02:37:01.705Z,62.73
2018-11-06T02:38:05.311Z,61.93
2018-11-06T02:39:09.567Z,67.63
2018-11-06T02:40:14.188Z,70.57
2018-11-06T02:41:17.766Z,63.67
2018-11-06T02:42:21.419Z,74.77
2018-11-06T02:43:24.953Z,74.33
2018-11-06T02:44:28.523Z,76.43
2018-11-06T02:45:32.092Z,60.87
2018-11-06T02:46:35.667Z,67.53
2018-11-06T02:47:39.722Z,63.57
2018-11-06T02:48:43.295Z,72.07
2018-11-06T02:49:46.871Z,68.40
2018-11-06T02:50:50.440Z,63.73
2018-11-06T02:51:54.014Z,64.47
2018-11-06T02:52:57.588Z,66.87
2018-11-06T02:54:01.176Z,86.03
2018-11-06T02:55:05.748Z,85.43
2018-11-06T02:56:09.312Z,71.27
2018-11-06T02:57:12.902Z,66.77
2018-11-06T02:58:16.468Z,77.47
2018-11-06T02:59:20.039Z,63.27
2018-11-06T03:00:23.684Z,67.53
2018-11-06T03:01:27.232Z,59.33
2018-11-06T03:02:31.122Z,62.67
2018-11-06T03:03:42.364Z,68.00
2018-11-06T03:04:45.943Z,82.43
2018-11-06T03:05:49.514Z,64.77
2018-11-06T03:06:53.082Z,89.53
2018-11-06T03:07:56.680Z,73.10
2018-11-06T03:09:00.297Z,71.03
2018-11-06T03:10:04.018Z,76.50
2018-11-06T03:11:07.776Z,71.03
2018-11-06T03:12:11.359Z,60.47
2018-11-06T03:13:14.966Z,93.77
2018-11-06T03:14:18.520Z,64.80
2018-11-06T03:15:22.112Z,63.63
2018-11-06T03:16:25.687Z,68.17
2018-11-06T03:17:29.322Z,66.87
2018-11-06T03:18:32.859Z,67.03
2018-11-06T03:19:36.434Z,70.80
2018-11-06T03:20:40.074Z,72.37
2018-11-06T03:21:43.680Z,76.90
2018-11-06T03:22:47.255Z,56.23
2018-11-06T03:23:50.864Z,61.00
2018-11-06T03:24:54.419Z,70.67
2018-11-06T03:25:57.987Z,74.03
2018-11-06T03:27:01.638Z,71.03
2018-11-06T03:28:05.246Z,58.43
2018-11-06T03:29:08.823Z,60.03
2018-11-06T03:30:13.894Z,68.37
2018-11-06T03:31:17.680Z,66.63
2018-11-06T03:32:21.264Z,70.00
2018-11-06T03:33:24.823Z,68.40
2018-11-06T03:34:28.411Z,66.13
2018-11-06T03:35:31.979Z,77.30
2018-11-06T03:36:35.591Z,63.57
2018-11-06T03:37:39.181Z,66.83
2018-11-06T03:38:42.715Z,64.23
2018-11-06T03:39:46.286Z,70.77
2018-11-06T03:40:49.865Z,72.17
2018-11-06T03:41:53.540Z,61.07
2018-11-06T03:42:57.134Z,65.53
2018-11-06T03:44:00.709Z,69.37
2018-11-06T03:45:04.598Z,65.40
2018-11-06T03:46:08.178Z,66.80
2018-11-06T03:47:11.743Z,71.00
2018-11-06T03:48:15.327Z,82.43
2018-11-06T03:49:18.903Z,66.63
2018-11-06T03:50:22.479Z,71.87
2018-11-06T03:51:26.058Z,71.40
2018-11-06T03:52:29.630Z,63.87
2018-11-06T03:53:33.212Z,65.67
2018-11-06T03:54:36.803Z,67.07
2018-11-06T03:55:40.374Z,68.53
2018-11-06T03:56:43.959Z,68.27
2018-11-06T03:57:47.660Z,66.70
2018-11-06T03:58:51.192Z,61.77
2018-11-06T03:59:54.735Z,66.87
2018-11-06T04:00:58.331Z,64.30
2018-11-06T04:02:01.917Z,68.70
2018-11-06T04:03:05.923Z,73.83
2018-11-06T04:04:09.694Z,69.27
2018-11-06T04:05:13.711Z,70.97
2018-11-06T04:06:17.290Z,72.07
2018-11-06T04:07:20.879Z,72.00
2018-11-06T04:08:24.528Z,68.50
2018-11-06T04:09:28.079Z,70.50
2018-11-06T04:10:31.667Z,69.03
2018-11-06T04:11:35.244Z,71.47
2018-11-06T04:12:39.447Z,64.80
2018-11-06T04:13:43.072Z,63.67
2018-11-06T04:14:46.654Z,75.67
2018-11-06T04:15:50.299Z,56.97
2018-11-06T04:16:53.891Z,57.07
2018-11-06T04:17:57.479Z,60.10
2018-11-06T04:19:01.291Z,57.80
2018-11-06T04:20:05.650Z,61.93
2018-11-06T04:21:09.354Z,62.77
2018-11-06T04:22:12.943Z,59.93
2018-11-06T04:23:16.529Z,58.30
2018-11-06T04:24:20.103Z,61.50
2018-11-06T04:25:23.687Z,60.13
2018-11-06T04:26:27.266Z,56.83
2018-11-06T04:27:30.850Z,59.50
2018-11-06T04:28:34.453Z,57.87
2018-11-06T04:29:38.035Z,58.00
2018-11-06T04:30:41.626Z,56.80
2018-11-06T04:31:45.203Z,55.00
2018-11-06T04:32:48.795Z,52.27
2018-11-06T04:33:52.379Z,55.30
2018-11-06T04:34:56.029Z,51.60
2018-11-06T04:35:59.582Z,54.27
2018-11-06T04:37:03.155Z,53.67
2018-11-06T04:38:06.750Z,53.93
2018-11-06T04:39:11.155Z,58.27
2018-11-06T04:40:15.158Z,55.17
2018-11-06T04:41:19.107Z,54.67
2018-11-06T04:42:22.656Z,52.87
2018-11-06T04:43:26.254Z,51.80
2018-11-06T04:44:29.858Z,52.63
2018-11-06T04:45:33.435Z,53.40
2018-11-06T04:46:37.023Z,53.10
2018-11-06T04:47:40.608Z,55.23
2018-11-06T04:48:44.223Z,54.60
2018-11-06T04:49:47.803Z,51.00
2018-11-06T04:50:51.399Z,52.60
2018-11-06T04:51:54.989Z,50.87
2018-11-06T04:52:58.587Z,50.70
2018-11-06T04:54:02.756Z,49.87
2018-11-06T04:55:07.540Z,53.13
2018-11-06T04:56:11.136Z,52.20
2018-11-06T04:57:14.702Z,47.33
2018-11-06T04:58:24.950Z,51.10
2018-11-06T04:59:28.507Z,48.07
2018-11-06T05:00:32.091Z,54.23
2018-11-06T05:01:35.675Z,51.77
2018-11-06T05:02:39.460Z,51.90
2018-11-06T05:03:46.076Z,52.47
2018-11-06T05:04:49.647Z,49.90
2018-11-06T05:05:53.238Z,57.87
2018-11-06T05:06:56.928Z,54.47
2018-11-06T05:08:00.416Z,49.77
2018-11-06T05:09:05.407Z,48.90
2018-11-06T05:10:11.103Z,49.10
2018-11-06T05:11:14.980Z,51.03
2018-11-06T05:12:18.568Z,48.43
2018-11-06T05:13:22.168Z,49.40
2018-11-06T05:14:25.840Z,47.57
2018-11-06T05:15:29.348Z,45.60
2018-11-06T05:16:32.949Z,48.30
2018-11-06T05:17:36.526Z,46.20
2018-11-06T05:18:40.130Z,52.93
2018-11-06T05:19:43.695Z,48.17
2018-11-06T05:20:47.275Z,49.83
2018-11-06T05:21:50.851Z,46.50
2018-11-06T05:22:54.455Z,46.37
2018-11-06T05:23:58.083Z,42.63
2018-11-06T05:25:01.879Z,44.10
2018-11-06T05:26:05.573Z,43.83
2018-11-06T05:27:09.138Z,44.50
2018-11-06T05:28:12.720Z,43.73
2018-11-06T05:29:16.341Z,44.90
2018-11-06T05:30:19.883Z,43.60
2018-11-06T05:31:23.464Z,45.40
2018-11-06T05:32:27.113Z,45.67
2018-11-06T05:33:30.661Z,44.90
2018-11-06T05:34:34.244Z,44.03
2018-11-06T05:35:37.831Z,44.97
2018-11-06T05:36:41.411Z,44.07
2018-11-06T05:37:45.012Z,46.07
2018-11-06T05:38:48.633Z,46.23
2018-11-06T05:40:03.784Z,45.53
2018-11-06T05:41:08.226Z,42.67
2018-11-06T05:42:11.771Z,45.83
2018-11-06T05:43:15.364Z,45.03
2018-11-06T05:44:18.955Z,43.67
2018-11-06T05:45:22.627Z,44.67
2018-11-06T05:46:26.147Z,44.90
2018-11-06T05:47:29.755Z,42.70
2018-11-06T05:48:33.338Z,43.83
2018-11-06T05:49:36.919Z,43.57
2018-11-06T05:50:40.503Z,40.73
2018-11-06T05:51:44.130Z,42.33
2018-11-06T05:52:47.694Z,42.10
2018-11-06T05:53:51.290Z,44.43
2018-11-06T05:54:54.870Z,41.77
2018-11-06T05:55:58.450Z,41.83
2018-11-06T05:57:02.031Z,43.40
2018-11-06T05:58:05.646Z,41.80
2018-11-06T05:59:09.261Z,39.73
2018-11-06T06:00:12.947Z,41.57
2018-11-06T06:01:16.516Z,44.50
2018-11-06T06:02:20.082Z,41.87
2018-11-06T06:03:23.726Z,40.57
2018-11-06T06:04:27.275Z,39.90
2018-11-06T06:05:30.909Z,41.40
2018-11-06T06:06:34.498Z,41.23
2018-11-06T06:07:38.038Z,41.60
2018-11-06T06:08:41.590Z,39.73
2018-11-06T06:09:45.194Z,40.63
2018-11-06T06:10:48.760Z,41.13
2018-11-06T06:11:52.349Z,41.43
2018-11-06T06:12:55.927Z,39.43
2018-11-06T06:13:59.491Z,40.80
2018-11-06T06:15:03.082Z,40.00
2018-11-06T06:16:06.663Z,39.87
2018-11-06T06:17:10.281Z,39.60
2018-11-06T06:18:13.826Z,41.00
2018-11-06T06:19:17.480Z,40.13
2018-11-06T06:20:21.013Z,39.93
2018-11-06T06:21:24.591Z,40.40
2018-11-06T06:22:28.164Z,38.97
2018-11-06T06:23:32.020Z,40.43
2018-11-06T06:24:35.594Z,40.17
2018-11-06T06:25:39.189Z,35.67
2018-11-06T06:26:42.768Z,39.30
2018-11-06T06:27:46.346Z,39.63
2018-11-06T06:28:49.916Z,40.30
2018-11-06T06:29:53.486Z,40.23
2018-11-06T06:30:57.063Z,39.23
2018-11-06T06:32:00.634Z,39.57
2018-11-06T06:33:04.257Z,39.30
2018-11-06T06:34:07.819Z,40.73
2018-11-06T06:35:11.477Z,39.67
2018-11-06T06:36:14.973Z,42.77
2018-11-06T06:37:18.541Z,41.37
2018-11-06T06:38:22.111Z,38.13
2018-11-06T06:39:25.683Z,38.70
2018-11-06T06:40:29.259Z,42.67
2018-11-06T06:41:32.840Z,39.17
2018-11-06T06:42:36.407Z,39.40
2018-11-06T06:43:39.980Z,42.07
2018-11-06T06:44:43.566Z,37.63
2018-11-06T06:45:47.147Z,43.13
2018-11-06T06:46:50.727Z,44.03
2018-11-06T06:47:54.291Z,44.57
2018-11-06T06:48:57.863Z,41.33
2018-11-06T06:50:01.443Z,42.00
2018-11-06T06:51:05.543Z,39.90
2018-11-06T06:52:09.125Z,38.50
2018-11-06T06:53:12.691Z,34.73
2018-11-06T06:54:16.390Z,39.47
2018-11-06T06:55:19.866Z,40.23
2018-11-06T06:56:23.413Z,36.67
2018-11-06T06:57:27.102Z,44.73
2018-11-06T06:58:30.671Z,40.07
2018-11-06T06:59:34.251Z,43.27
2018-11-06T07:00:37.818Z,38.03
2018-11-06T07:01:41.415Z,35.13
2018-11-06T07:02:44.992Z,41.70
2018-11-06T07:03:48.563Z,39.50
2018-11-06T07:04:52.136Z,37.80
2018-11-06T07:05:55.836Z,49.20
2018-11-06T07:06:59.394Z,37.67
2018-11-06T07:08:02.971Z,37.37
2018-11-06T07:09:08.416Z,48.00
2018-11-06T07:10:13.854Z,37.43
2018-11-06T07:11:17.428Z,38.00
2018-11-06T07:12:21.019Z,38.37
2018-11-06T07:13:24.595Z,35.27
2018-11-06T07:14:28.186Z,36.83
2018-11-06T07:15:32.249Z,38.07
2018-11-06T07:16:35.814Z,36.27
2018-11-06T07:17:39.398Z,36.80
2018-11-06T07:18:43.219Z,35.60
2018-11-06T07:19:46.842Z,37.87
2018-11-06T07:20:50.387Z,36.07
2018-11-06T07:21:54.003Z,37.27
2018-11-06T07:22:57.571Z,40.80
2018-11-06T07:24:01.343Z,42.27
2018-11-06T07:25:05.604Z,43.73
2018-11-06T07:26:09.178Z,40.63
2018-11-06T07:27:12.763Z,38.33
2018-11-06T07:28:16.332Z,38.43
2018-11-06T07:29:19.897Z,36.87
2018-11-06T07:30:23.815Z,32.03
2018-11-06T07:31:27.395Z,32.10
2018-11-06T07:32:31.054Z,29.23
2018-11-06T07:33:34.579Z,25.37
2018-11-06T07:34:38.252Z,30.57
2018-11-06T07:35:41.925Z,28.87
2018-11-06T07:36:45.312Z,27.10
2018-11-06T07:37:48.875Z,28.70
2018-11-06T07:38:52.479Z,26.90
2018-11-06T07:39:56.066Z,26.13
2018-11-06T07:40:59.690Z,28.30
2018-11-06T07:42:03.216Z,26.47
2018-11-06T07:43:06.855Z,26.37
2018-11-06T07:44:11.199Z,26.80
2018-11-06T07:45:17.166Z,27.70
2018-11-06T07:46:20.732Z,28.33
2018-11-06T07:47:24.303Z,28.77
2018-11-06T07:48:27.871Z,29.63
2018-11-06T07:49:31.444Z,29.97
2018-11-06T07:50:35.162Z,28.50
2018-11-06T07:51:38.607Z,31.20
2018-11-06T07:52:42.383Z,29.27
2018-11-06T07:53:45.968Z,27.23
2018-11-06T07:54:49.556Z,30.10
2018-11-06T07:55:53.237Z,31.40
2018-11-06T07:56:56.718Z,28.60
2018-11-06T07:58:00.288Z,29.40
2018-11-06T07:59:03.891Z,28.53
2018-11-06T08:00:21.861Z,28.17
2018-11-06T08:01:25.503Z,29.50
2018-11-06T08:02:29.078Z,27.20
2018-11-06T08:03:32.684Z,30.20
2018-11-06T08:04:36.246Z,28.77
2018-11-06T08:05:39.837Z,26.17
2018-11-06T08:06:43.419Z,27.60
2018-11-06T08:07:47.910Z,25.93
2018-11-06T08:08:51.511Z,27.03
2018-11-06T08:09:55.092Z,25.70
2018-11-06T08:10:58.695Z,26.63
2018-11-06T08:12:02.330Z,26.53
2018-11-06T08:13:06.227Z,25.83
2018-11-06T08:14:09.780Z,25.70
2018-11-06T08:15:13.876Z,27.53
2018-11-06T08:16:17.384Z,24.80
2018-11-06T08:17:20.966Z,28.70
2018-11-06T08:18:24.551Z,27.33
2018-11-06T08:19:28.146Z,27.57
2018-11-06T08:20:31.766Z,23.87
2018-11-06T08:21:35.358Z,26.43
2018-11-06T08:22:39.294Z,26.93
2018-11-06T08:23:42.962Z,28.40
2018-11-06T08:24:46.467Z,29.83
2018-11-06T08:25:50.059Z,29.63
2018-11-06T08:26:53.655Z,28.70
2018-11-06T08:27:57.242Z,30.73
2018-11-06T08:29:00.823Z,28.57
2018-11-06T08:30:05.099Z,27.37
2018-11-06T08:31:08.859Z,28.43
2018-11-06T08:32:12.578Z,29.57
2018-11-06T08:33:15.955Z,26.90
2018-11-06T08:34:19.531Z,29.33
2018-11-06T08:35:23.103Z,26.90
2018-11-06T08:36:26.728Z,27.27
2018-11-06T08:37:30.275Z,28.87
2018-11-06T08:38:33.858Z,27.87
2018-11-06T08:39:37.452Z,28.60
2018-11-06T08:40:41.037Z,26.47
2018-11-06T08:41:44.630Z,25.73
2018-11-06T08:42:48.206Z,27.83
2018-11-06T08:43:51.780Z,28.60
2018-11-06T08:44:55.363Z,26.43
2018-11-06T08:45:58.960Z,26.83
2018-11-06T08:47:02.543Z,24.93
2018-11-06T08:48:06.319Z,27.80
2018-11-06T08:49:09.849Z,25.33
2018-11-06T08:50:14.698Z,25.43
2018-11-06T08:51:18.291Z,24.27
2018-11-06T08:52:21.940Z,25.37
2018-11-06T08:53:25.497Z,22.07
2018-11-06T08:54:29.132Z,24.13
2018-11-06T08:55:32.683Z,21.00
2018-11-06T08:56:36.272Z,22.30
2018-11-06T08:57:40.379Z,23.03
2018-11-06T08:58:43.959Z,24.00
2018-11-06T08:59:47.575Z,22.40
2018-11-06T09:00:51.275Z,20.50
2018-11-06T09:01:54.865Z,22.87
2018-11-06T09:02:58.425Z,22.93
2018-11-06T09:04:02.012Z,21.47
2018-11-06T09:05:07.047Z,22.03
2018-11-06T09:06:10.643Z,22.33
2018-11-06T09:07:14.250Z,21.67
2018-11-06T09:08:17.830Z,22.07
2018-11-06T09:09:21.418Z,21.60
2018-11-06T09:10:24.998Z,21.30
2018-11-06T09:11:28.604Z,20.60
2018-11-06T09:12:32.187Z,20.47
2018-11-06T09:13:35.794Z,18.63
2018-11-06T09:14:39.352Z,23.20
2018-11-06T09:15:42.930Z,23.43
2018-11-06T09:16:46.548Z,22.43
2018-11-06T09:17:50.116Z,21.30
2018-11-06T09:18:53.699Z,19.97
2018-11-06T09:19:57.280Z,21.17
2018-11-06T09:21:00.863Z,19.63
2018-11-06T09:22:04.618Z,22.73
2018-11-06T09:23:08.207Z,22.20
2018-11-06T09:24:11.795Z,22.33
2018-11-06T09:25:16.973Z,22.03
2018-11-06T09:26:20.619Z,21.33
2018-11-06T09:27:24.163Z,20.10
2018-11-06T09:28:27.746Z,20.63
2018-11-06T09:29:31.327Z,22.53
2018-11-06T09:30:34.912Z,21.03
2018-11-06T09:31:38.496Z,21.63
2018-11-06T09:32:42.091Z,22.73
2018-11-06T09:33:45.752Z,24.00
2018-11-06T09:34:49.306Z,22.10
2018-11-06T09:35:52.883Z,22.00
2018-11-06T09:36:56.463Z,20.43
2018-11-06T09:38:00.051Z,19.73
2018-11-06T09:39:04.315Z,20.77
2018-11-06T09:40:09.592Z,19.87
2018-11-06T09:41:13.195Z,19.87
2018-11-06T09:42:16.763Z,20.37
2018-11-06T09:43:20.420Z,19.33
2018-11-06T09:44:23.963Z,20.10
2018-11-06T09:45:27.571Z,19.83
2018-11-06T09:46:31.131Z,20.80
2018-11-06T09:47:34.749Z,20.03
2018-11-06T09:48:38.329Z,20.40
2018-11-06T09:49:41.907Z,20.13
2018-11-06T09:50:45.553Z,19.30
2018-11-06T09:51:49.112Z,18.77
2018-11-06T09:52:52.695Z,18.20
2018-11-06T09:53:56.279Z,18.70
2018-11-06T09:54:59.868Z,18.93
2018-11-06T09:56:03.448Z,18.40
2018-11-06T09:57:07.035Z,18.93
2018-11-06T09:58:10.631Z,18.10
2018-11-06T09:59:14.211Z,18.80
2018-11-06T10:00:19.252Z,17.90
2018-11-06T10:01:22.720Z,21.37
2018-11-06T10:02:26.378Z,20.70
2018-11-06T10:03:29.914Z,21.63
2018-11-06T10:04:33.484Z,20.80
2018-11-06T10:05:37.057Z,21.47
2018-11-06T10:06:40.839Z,20.70
2018-11-06T10:07:44.238Z,21.17
2018-11-06T10:08:47.817Z,20.33
2018-11-06T10:09:51.367Z,20.07
2018-11-06T10:10:54.936Z,20.90
2018-11-06T10:11:58.510Z,20.07
2018-11-06T10:13:02.107Z,22.77
2018-11-06T10:14:05.671Z,21.27
2018-11-06T10:15:11.355Z,20.73
2018-11-06T10:16:14.952Z,21.87
2018-11-06T10:17:18.543Z,20.57
2018-11-06T10:18:22.118Z,19.90
2018-11-06T10:19:25.692Z,21.60
2018-11-06T10:20:29.263Z,20.40
2018-11-06T10:21:32.839Z,22.30
2018-11-06T10:22:36.591Z,22.87
2018-11-06T10:23:40.175Z,23.37
2018-11-06T10:24:43.751Z,22.17
2018-11-06T10:25:47.323Z,21.33
2018-11-06T10:26:50.894Z,21.07
2018-11-06T10:27:54.474Z,21.30
2018-11-06T10:28:58.055Z,22.80
2018-11-06T10:30:01.728Z,19.40
2018-11-06T10:31:05.511Z,23.87
2018-11-06T10:32:09.263Z,24.03
2018-11-06T10:33:12.853Z,23.20
2018-11-06T10:34:16.403Z,24.60
2018-11-06T10:35:20.037Z,22.47
2018-11-06T10:36:23.575Z,22.67
2018-11-06T10:37:27.275Z,22.73
2018-11-06T10:38:30.981Z,22.67
2018-11-06T10:39:34.561Z,23.97
2018-11-06T10:40:38.133Z,23.37
2018-11-06T10:41:41.783Z,22.07
2018-11-06T10:42:45.869Z,22.70
2018-11-06T10:43:49.468Z,22.43
2018-11-06T10:44:53.170Z,22.87
2018-11-06T10:45:56.708Z,24.10
2018-11-06T10:47:00.450Z,23.43
2018-11-06T10:48:04.014Z,24.03
2018-11-06T10:49:08.815Z,22.60
2018-11-06T10:50:13.211Z,24.00
2018-11-06T10:51:16.775Z,21.80
2018-11-06T10:52:20.704Z,22.57
2018-11-06T10:53:24.282Z,22.50
2018-11-06T10:54:27.861Z,23.17
2018-11-06T10:55:31.428Z,23.73
2018-11-06T10:56:34.995Z,23.03
2018-11-06T10:57:39.678Z,21.17
2018-11-06T10:58:43.269Z,21.63
2018-11-06T10:59:46.834Z,22.43
2018-11-06T11:00:56.015Z,21.67
2018-11-06T11:02:05.032Z,25.10
2018-11-06T11:03:13.997Z,23.83
2018-11-06T11:04:20.569Z,22.93
2018-11-06T11:05:26.009Z,23.77
2018-11-06T11:06:29.648Z,22.83
2018-11-06T11:07:33.240Z,21.70
2018-11-06T11:08:36.814Z,22.13
2018-11-06T11:09:40.415Z,21.83
2018-11-06T11:10:44.014Z,23.47
2018-11-06T11:11:47.592Z,20.40
2018-11-06T11:12:51.179Z,22.00
2018-11-06T11:13:54.758Z,20.03
2018-11-06T11:14:58.355Z,20.03
2018-11-06T11:16:01.948Z,21.87
2018-11-06T11:17:05.815Z,21.97
2018-11-06T11:18:09.455Z,22.00
2018-11-06T11:19:13.014Z,19.73
2018-11-06T11:20:16.653Z,19.93
2018-11-06T11:21:20.219Z,21.33
2018-11-06T11:22:23.799Z,20.37
2018-11-06T11:23:27.403Z,20.60
2018-11-06T11:24:30.992Z,21.67
2018-11-06T11:25:34.639Z,21.47
2018-11-06T11:26:38.179Z,22.83
2018-11-06T11:27:42.455Z,21.67
2018-11-06T11:28:46.018Z,21.37
2018-11-06T11:29:49.610Z,22.20
2018-11-06T11:30:53.195Z,21.37
2018-11-06T11:31:56.770Z,22.83
2018-11-06T11:33:00.355Z,20.97
2018-11-06T11:34:03.961Z,22.20
2018-11-06T11:35:07.619Z,22.50
2018-11-06T11:36:11.204Z,21.03
2018-11-06T11:37:14.948Z,21.53
2018-11-06T11:38:18.535Z,20.40
2018-11-06T11:39:22.167Z,20.53
2018-11-06T11:40:25.754Z,20.67
2018-11-06T11:41:29.331Z,20.97
2018-11-06T11:42:32.954Z,20.97
2018-11-06T11:43:36.594Z,18.37
2018-11-06T11:44:40.199Z,21.70
2018-11-06T11:45:43.806Z,20.93
2018-11-06T11:46:47.363Z,19.30
2018-11-06T11:47:50.959Z,20.57
2018-11-06T11:48:54.551Z,20.27
2018-11-06T11:49:58.141Z,21.60
2018-11-06T11:51:01.737Z,21.97
2018-11-06T11:52:05.319Z,20.97
2018-11-06T11:53:08.932Z,19.70
2018-11-06T11:54:12.531Z,21.13
2018-11-06T11:55:16.106Z,21.23
2018-11-06T11:56:19.731Z,22.03
2018-11-06T11:57:23.322Z,23.87
2018-11-06T11:58:26.864Z,22.57
2018-11-06T11:59:30.454Z,22.40
2018-11-06T12:00:37.732Z,21.17
2018-11-06T12:01:41.315Z,20.47
2018-11-06T12:02:44.899Z,21.80
2018-11-06T12:03:48.552Z,20.33
2018-11-06T12:04:52.127Z,18.57
2018-11-06T12:05:55.711Z,22.30
2018-11-06T12:06:59.299Z,21.60
2018-11-06T12:08:02.896Z,22.67
2018-11-06T12:09:07.922Z,21.97
2018-11-06T12:10:12.345Z,22.93
2018-11-06T12:11:15.932Z,22.60
2018-11-06T12:12:19.527Z,21.77
2018-11-06T12:13:23.100Z,22.30
2018-11-06T12:14:26.707Z,21.67
2018-11-06T12:15:30.295Z,22.00
2018-11-06T12:16:34.239Z,22.93
2018-11-06T12:17:37.855Z,23.30
2018-11-06T12:18:41.451Z,23.30
2018-11-06T12:19:45.036Z,21.30
2018-11-06T12:20:48.660Z,24.23
2018-11-06T12:21:52.395Z,24.00
2018-11-06T12:22:55.988Z,24.00
2018-11-06T12:23:59.591Z,24.40
2018-11-06T12:25:03.400Z,23.73
2018-11-06T12:26:06.795Z,22.27
2018-11-06T12:27:10.400Z,24.10
2018-11-06T12:28:13.994Z,23.73
2018-11-06T12:29:17.578Z,23.00
2018-11-06T12:30:21.167Z,23.63
2018-11-06T12:31:24.771Z,23.57
2018-11-06T12:32:28.410Z,24.00
2018-11-06T12:33:31.940Z,24.13
2018-11-06T12:34:35.886Z,26.53
2018-11-06T12:35:39.543Z,24.50
2018-11-06T12:36:43.134Z,24.67
2018-11-06T12:37:46.688Z,23.87
2018-11-06T12:38:50.299Z,24.67
2018-11-06T12:39:53.884Z,24.47
2018-11-06T12:40:57.483Z,24.20
2018-11-06T12:42:01.085Z,24.07
2018-11-06T12:43:04.753Z,24.77
2018-11-06T12:44:09.022Z,26.00
2018-11-06T12:45:14.048Z,25.77
2018-11-06T12:46:17.663Z,25.57
2018-11-06T12:47:21.275Z,25.43
2018-11-06T12:48:24.855Z,25.57
2018-11-06T12:49:28.467Z,26.20
2018-11-06T12:50:32.212Z,25.80
2018-11-06T12:51:35.907Z,26.90
2018-11-06T12:52:39.890Z,25.67
2018-11-06T12:53:43.488Z,24.50
2018-11-06T12:54:47.082Z,27.53
2018-11-06T12:55:50.675Z,26.03
2018-11-06T12:56:54.260Z,27.37
2018-11-06T12:57:57.847Z,27.63
2018-11-06T12:59:01.428Z,27.60
2018-11-06T13:00:06.096Z,28.43
2018-11-06T13:01:09.663Z,26.93
2018-11-06T13:02:13.270Z,27.83
2018-11-06T13:03:16.834Z,29.10
2018-11-06T13:04:20.415Z,28.17
2018-11-06T13:05:24.069Z,30.23
2018-11-06T13:06:27.647Z,28.80
2018-11-06T13:07:31.230Z,28.57
2018-11-06T13:08:34.803Z,28.83
2018-11-06T13:09:38.377Z,28.30
2018-11-06T13:10:42.017Z,28.83
2018-11-06T13:11:45.607Z,28.30
2018-11-06T13:12:49.301Z,28.60
2018-11-06T13:13:52.850Z,29.77
2018-11-06T13:14:57.237Z,28.40
2018-11-06T13:16:00.250Z,30.27
2018-11-06T13:17:03.818Z,29.10
2018-11-06T13:18:07.387Z,30.00
2018-11-06T13:19:10.950Z,29.33
2018-11-06T13:20:15.710Z,29.10
2018-11-06T13:21:19.283Z,29.60
2018-11-06T13:22:22.859Z,31.17
2018-11-06T13:23:26.432Z,30.37
2018-11-06T13:24:30.024Z,31.43
2018-11-06T13:25:33.664Z,29.97
2018-11-06T13:26:37.324Z,33.03
2018-11-06T13:27:41.564Z,33.80
2018-11-06T13:28:45.134Z,32.07
2018-11-06T13:29:48.703Z,32.30
2018-11-06T13:30:52.356Z,32.30
2018-11-06T13:31:55.852Z,31.47
2018-11-06T13:32:59.419Z,32.37
2018-11-06T13:34:03.004Z,31.53
2018-11-06T13:35:06.579Z,31.80
2018-11-06T13:36:10.142Z,32.93
2018-11-06T13:37:13.702Z,31.27
2018-11-06T13:38:17.291Z,32.17
2018-11-06T13:39:20.863Z,31.50